Bruno Alves

Olheiro-Chefe - Criciuma
19 Ago 2027
Quinta-feira
Processo

Personalidade

Adaptabilidade (20) Ambição (4) Controvérsia (11) Lealdade (13) Pressão (10) Profissionalismo (5) Espírito Esportivo (11) Temperamento (4)

Perfil

Estilo de Treinamento Democrático
Licença Nacional B
Determinação 6
Gestão de Pessoas 10
Motivação 8
Disciplina 7
Satisfação no Trabalho
100%
Fadiga
0%
Função Olheiro-Chefe
Salário 61.6K p/s
Contrato 14.03.2028

Desempenho

Comportamento Bom
Eficácia do Treinamento
24%
Desenvolvimento do Jogador
50%
Prevenção de Lesões
50%
Implementação Tática
20%

Eventos Recentes

Participou de uma reunião de recrutamento agora
Recomendou um alvo de transferência agora
Recomendou um alvo de transferência agora
Recomendou um alvo de transferência agora
Recomendou um alvo de transferência agora
Participou de uma reunião de recrutamento agora
Participou de uma reunião de recrutamento 7d atrás
Participou de uma reunião de recrutamento 7d atrás

Monitorando agora

188
Jogador Clube Status Habilidade Confiança Observado Última observação Último voto
Riquelme Grêmio Ativo 91 / 112 72% 1 14.06.2027 Aprovar
Dion Beljo Standard Liege Ativo 131 / 132 66% 1 01.06.2027 Aprovar
Markus Jensen Nacional Ativo 116 / 114 40% 5 31.05.2027 -
Yussif Saidu Zaragoza Ativo 132 / 122 40% 2 31.05.2027 -
Francisco Fernandes Porto Ativo 79 / 106 40% 2 31.05.2027 -
Iwan Morgan Grimsby Town Ativo 119 / 124 40% 8 30.05.2027 -
Federico Serra Arezzo Ativo 81 / 83 40% 4 28.05.2027 -
Paco Esteban Virtus Entella Ativo 91 / 97 40% 3 28.05.2027 -
Hassan Beja AFC Leopards Ativo 97 / 99 40% 1 28.05.2027 -
Fletcher Holman Swindon Town Ativo 82 / 91 40% 5 25.05.2027 -
Dilan Neves Benfica Ativo 83 / 98 40% 6 25.05.2027 -
Tiziano Dornell Danubio Ativo 115 / 126 40% 3 20.05.2027 -
Gustavo Ferreira Benfica Ativo 82 / 91 40% 6 19.05.2027 -
Matvii Ponomarenko Dynamo Kyiv Ativo 115 / 105 40% 5 18.05.2027 -
Sidiki Chérif Coventry City Ativo 129 / 139 40% 8 16.05.2027 -
Leo Castledine Middlesbrough Ativo 123 / 139 40% 4 16.05.2027 -
Darlvin Yeboah Bechem United Ativo 88 / 81 40% 7 15.05.2027 -
Víctor Guzmán Sporting CP Ativo 102 / 93 40% 6 13.05.2027 -
Manuel Simões Sporting CP Ativo 71 / 80 40% 1 13.05.2027 -
Borna Knezović Casarano Ativo 93 / 110 40% 2 09.05.2027 -
Chineme Chinonso Ikorodu City Ativo 87 / 93 40% 3 08.05.2027 -
Octávio Silva Artigas Ativo 85 / 78 40% 1 06.05.2027 -
Lorenzo De Leo Renate Ativo 94 / 116 40% 4 05.05.2027 -
Ben Ahmed Kohili Paradou Ativo 94 / 120 40% 5 03.05.2027 -
Rayan Bournemouth Ativo 145 / 148 40% 3 03.05.2027 -
Gabriel Melo Dugopolje Ativo 93 / 83 40% 2 02.05.2027 -
Hazeem Bakre Crawley Town Ativo 85 / 89 40% 7 02.05.2027 -
Amaury Morales Pumas UNAM Ativo 117 / 131 40% 4 01.05.2027 -
Zaïd BafdilI Sporting CP Ativo 89 / 95 40% 4 01.05.2027 -
Eduardo Fernandes Benfica Ativo 106 / 111 40% 2 01.05.2027 -
Chinonso Chibueze Harrogate Town Ativo 69 / 92 40% 1 01.05.2027 -
Luke Baartman ES Mostaganem Ativo 106 / 114 40% 5 29.04.2027 -
Alagie Wally Veres Ativo 80 / 87 40% 1 29.04.2027 -
Mateus Mané Manchester United Ativo 126 / 156 40% 3 28.04.2027 -
Martim Cunha Porto Ativo 108 / 125 40% 3 27.04.2027 -
Monty Batlhabane Polokwane City Ativo 90 / 84 40% 1 27.04.2027 -
Baba N'Diaye Chelyabinsk Ativo 80 / 89 40% 2 26.04.2027 -
Toni Tamarit Alverca Ativo 112 / 128 40% 8 24.04.2027 -
Godbless Ayeke AS Korofina Ativo 79 / 70 40% 2 24.04.2027 -
Mathis Jangeal Famalicao Ativo 107 / 98 40% 8 23.04.2027 -
Jofre Torrents Ajax Ativo 114 / 141 40% 1 23.04.2027 Mais informações
Thulani Erasmus Platinum Stars Ativo 101 / 120 40% 2 21.04.2027 -
Umar Abubakar Famalicao Ativo 95 / 81 40% 2 21.04.2027 -
Njabulo Hlongwane Binga Ativo 75 / 73 40% 1 21.04.2027 -
Dramane Kamagaté USM Alger Ativo 103 / 127 40% 2 19.04.2027 -
Kelian Baruti Liamba Estoril Praia Ativo 89 / 114 40% 4 18.04.2027 -
Leandro Martins Benfica Ativo 103 / 97 40% 2 18.04.2027 -
Michael Noumon Heart of Lions Ativo 74 / 74 40% 3 14.04.2027 -
Jonás Luna Santa Clara Ativo 116 / 113 40% 5 12.04.2027 -
Ethan Williams Peterborough United Ativo 113 / 107 40% 1 11.04.2027 -
Vasco Santos Oliveirense Ativo 94 / 110 40% 1 11.04.2027 -
David Kalokoh Ajax Ativo 116 / 135 40% 3 09.04.2027 -
Salvador Blopá Casa Pia Ativo 117 / 131 40% 1 06.04.2027 -
Daniel Costa Sporting CP Ativo 92 / 86 40% 1 06.04.2027 -
Wendell Livyi Bereh Ativo 87 / 113 40% 1 05.04.2027 -
Williams Furman Black Aces Ativo 65 / 73 40% 3 03.04.2027 -
Lwanda Mbanjwa Maritzburg United Ativo 84 / 91 40% 2 03.04.2027 -
Jovan Milošević Braga Ativo 126 / 134 40% 6 03.04.2027 -
Ernie Weaver AFC Wimbledon Ativo 105 / 118 40% 2 03.04.2027 -
Keagan Tau Ajax Cape Town Ativo 90 / 114 40% 1 03.04.2027 -
Arthur Maron São Paulo Ativo 89 / 101 40% 2 31.03.2027 -
Fuzy Taylor Medeama Ativo 73 / 91 40% 1 29.03.2027 -
José Pachuca Puebla Ativo 116 / 123 40% 2 26.03.2027 -
Josh Smith Accrington Stanley Ativo 85 / 92 40% 1 26.03.2027 -
Rayhan Momade Sporting CP Ativo 100 / 113 40% 1 26.03.2027 -
Dom Ballard Leyton Orient Ativo 123 / 130 40% 4 24.03.2027 -
Afonso Assis Moreirense Ativo 112 / 115 40% 1 21.03.2027 -
Bastien Meupiyou Alverca Ativo 116 / 109 40% 2 19.03.2027 -
Joaquin Seys Club Brugge Ativo 126 / 119 40% 1 19.03.2027 -
Gonçalo Oliveira Benfica Ativo 115 / 114 40% 1 17.03.2027 -
João Capucho Benfica Ativo 102 / 102 40% 1 15.03.2027 -
Dylan Lawlor Cardiff City Ativo 123 / 122 40% 1 15.03.2027 -
Sule John US Forces Armees Ativo 79 / 85 40% 2 12.03.2027 -
Matvey Kislyak CSKA Moscow Ativo 130 / 139 40% 2 11.03.2027 -
Percy Jali Free State Stars Ativo 86 / 104 40% 1 11.03.2027 -
Matías Gómez Granada Ativo 114 / 106 40% 1 11.03.2027 Mais informações
João Teixeira Porto Ativo 99 / 117 40% 1 08.03.2027 -
Zane Albarus Cambridge United Ativo 99 / 107 40% 1 08.03.2027 -
Deivid Washington RC Strasbourg Ativo 116 / 134 40% 5 06.03.2027 -
Daniel Vernattus Metalist Ativo 83 / 105 40% 1 05.03.2027 -
Thomas Waddingham Portsmouth Ativo 112 / 109 40% 1 03.03.2027 -
Will Lankshear Middlesbrough Ativo 118 / 124 40% 1 27.02.2027 -
Rudi Almeida Famalicao Ativo 85 / 81 40% 3 19.02.2027 -
Nordan Mukiele Stade Rennais Ativo 88 / 103 40% 1 16.02.2027 -
Lévy Néne FC Nordsjaelland Ativo 114 / 111 40% 1 13.02.2027 -
Ognjen Bondžulić Mladost Lucani Ativo 96 / 98 40% 1 13.02.2027 -
Léo Jacó Santa Clara Ativo 101 / 102 40% 1 05.02.2027 -
Francis Sulemana BA All Stars Ativo 78 / 83 40% 1 05.02.2027 -
Lucas Høgsberg RC Strasbourg Ativo 126 / 150 40% 1 07.01.2027 -
Sabil Hansen Randers Ativo 117 / 118 40% 1 07.01.2027 -
Vinícius Lopes Santa Clara Ativo 119 / 131 40% 3 16.12.2026 -
Dinis Pinto Moreirense Ativo 122 / 147 40% 1 16.12.2026 -
Amar Memić Casa Pia Ativo 127 / 128 62% 1 01.12.2026 Aprovar
Andreas Trimmel Red Bull Salzburg Ativo 131 / 131 60% 1 01.12.2026 Aprovar
Kévin Zohi Torreense Ativo 117 / 103 40% 2 29.11.2026 -
Peter Shalulile Mamelodi Sundowns Ativo 136 / 111 40% 3 29.11.2026 Observar
Yousef Salech Cardiff City Ativo 126 / 125 40% 1 29.11.2026 -
Oli McBurnie Hull City Ativo 123 / 149 40% 3 28.11.2026 -
Juninho Pumas UNAM Ativo 134 / 119 40% 4 28.11.2026 -
Elijah Adebayo Luton Town Ativo 112 / 108 40% 1 28.11.2026 -
Zé Leite Leixões Ativo 108 / 115 40% 4 27.11.2026 -
André Silva Tondela Ativo 124 / 144 40% 1 27.11.2026 -
Negueba Mirassol Ativo 125 / 110 40% 3 25.11.2026 -
Dawda Camara Alverca Ativo 124 / 136 40% 6 25.11.2026 -
Lewis Morgan SuperSport United Ativo 123 / 142 40% 3 24.11.2026 Observar
Yassin Fortuné Vizela Ativo 112 / 97 40% 1 24.11.2026 -
Juan Muñoz Leiria Ativo 134 / 120 40% 5 19.11.2026 -
Pablo Ruan Nacional Ativo 112 / 110 40% 2 18.11.2026 -
Ricardo Valente SV Ried Ativo 101 / 107 40% 1 18.11.2026 -
Hany Mukhtar Spezia Ativo 142 / 122 40% 1 16.11.2026 Mais informações
Figueiredo Alverca Ativo 135 / 142 40% 5 15.11.2026 Observar
Yoane Wissa Newcastle United Ativo 135 / 137 40% 1 15.11.2026 -
Yanis Begraoui Estoril Praia Ativo 123 / 115 40% 1 15.11.2026 -
Andre Green AVS Ativo 115 / 125 40% 3 14.11.2026 -
Jair Silva Leiria Ativo 115 / 126 40% 1 13.11.2026 -
Tomané Tondela Ativo 109 / 91 40% 1 13.11.2026 -
Pablo Fernández Leiria Ativo 124 / 92 40% 2 12.11.2026 -
Mésaque Djú Portimonense Ativo 99 / 107 40% 1 11.11.2026 -
Chuchu Ramírez Nacional Ativo 139 / 114 40% 4 07.11.2026 -
Pau Víctor AVS Ativo 136 / 134 40% 3 06.11.2026 -
Jonathan Calleri Sport Recife Ativo 139 / 147 40% 5 06.11.2026 Observar
Romelu Castagne KV Oostende Ativo 133 / 127 40% 2 03.11.2026 Mais informações
Bamba Dieng Crvena Zvezda Ativo 123 / 116 40% 1 03.11.2026 -
Jalen Blesa Rio Ave Ativo 123 / 135 40% 1 02.11.2026 -
Heung-Min Son Los Angeles Football Club Ativo 154 / 168 40% 2 01.11.2026 -
Marezi Portsmouth Ativo 122 / 133 40% 1 01.11.2026 -
Miguel Falé Pacos de Ferreira Ativo 99 / 104 40% 1 31.10.2026 -
Sead Hakšabanović Malmo FF Ativo 117 / 133 40% 1 31.10.2026 -
Ianis Stoica Estrela da Amadora Ativo 121 / 121 40% 1 30.10.2026 -
Mohammed Bouldini Académico de Viseu Ativo 122 / 133 40% 4 27.10.2026 -
Joe Gelhardt Hull City Ativo 124 / 146 40% 1 27.10.2026 -
André Lacximicant Estoril Praia Ativo 113 / 96 40% 1 25.10.2026 -
Aune Heggebø West Bromwich Albion Ativo 128 / 126 40% 1 25.10.2026 -
Rodrigo Marquês Oliveirense Ativo 86 / 98 40% 1 20.10.2026 -
Manuel Ospina Cortulua Ativo 122 / 114 40% 1 19.10.2026 -
Rui Pedro Felgueiras Ativo 100 / 112 40% 1 18.10.2026 -
Fotis Ioannidis Rio Ave Ativo 148 / 126 40% 6 17.10.2026 -
Rodrigo Bogarín Barracas Central Ativo 127 / 127 40% 2 15.10.2026 -
Andrés Rentería Jaguares Ativo 115 / 111 40% 1 14.10.2026 -
Kévin Denkey FC Cincinnati Ativo 120 / 128 40% 1 12.10.2026 -
Bénie Traoré New York City Ativo 128 / 134 40% 2 10.10.2026 -
Dylan Nandín Arouca Ativo 124 / 128 40% 1 10.10.2026 -
Héctor Hernández Gil Vicente Ativo 114 / 116 40% 5 09.10.2026 -
Paulinho Toluca Ativo 150 / 146 40% 1 08.10.2026 -
Alfonso Trezza Arouca Ativo 121 / 129 40% 4 07.10.2026 -
Juanda Fuentes Penafiel Ativo 99 / 121 40% 2 07.10.2026 -
Korede Osundina Casa Pia Ativo 120 / 130 40% 1 07.10.2026 -
Adnan Courtois KV Oostende Ativo 126 / 151 40% 1 03.10.2026 -
Tiago Leite Felgueiras Ativo 113 / 95 40% 1 01.10.2026 -
Mandla Mahlangu Ajax Cape Town Ativo 103 / 112 40% 1 28.09.2026 -
Sam Surridge Nashville SC Ativo 126 / 133 40% 1 25.09.2026 -
Jordan Morris Seattle Sounders Ativo 115 / 125 40% 1 24.09.2026 -
Antoine Griezmann Orlando City Ativo 144 / 161 40% 2 19.09.2026 -
Antony Alonso Deportivo Riestra Ativo 126 / 132 40% 1 15.09.2026 -
Mo Dauda Portimonense Ativo 92 / 107 40% 1 15.09.2026 -
Marcus Ingvartsen San Diego Football Club Ativo 116 / 120 40% 1 14.09.2026 -
Lucas Moura Sport Recife Ativo 142 / 139 40% 3 09.09.2026 -
Maximiliano Rodríguez Huachipato Ativo 121 / 109 40% 1 07.09.2026 -
Jorge Meireles AVS Ativo 101 / 106 40% 1 07.09.2026 -
Wessam Abou Ali Columbus Crew Ativo 129 / 117 40% 1 06.09.2026 -
Willian José Bahia Ativo 130 / 123 40% 1 05.09.2026 -
Martín Ojeda Orlando City Ativo 131 / 113 40% 4 04.09.2026 -
Luis Muriel Junior Ativo 122 / 127 40% 1 04.09.2026 -
Jorge Aguirre Torreense Ativo 94 / 88 40% 1 03.09.2026 -
André Clovis Leiria Ativo 115 / 133 40% 1 03.09.2026 -
João Costa Santa Clara Ativo 119 / 122 40% 2 01.09.2026 -
Javier Correa Colo-Colo Ativo 124 / 129 40% 1 30.08.2026 -
Anthony Carter Vizela Ativo 99 / 114 40% 1 29.08.2026 -
Maximiliano Gómez Nacional Ativo 122 / 133 40% 1 28.08.2026 -
Gustavo Silva Vitoria Guimaraes Ativo 120 / 114 40% 1 28.08.2026 -
Arnel Jakupović Vitoria Guimaraes Ativo 126 / 118 40% 2 27.08.2026 -
Léo Bonatini Brondby Ativo 117 / 98 40% 1 27.08.2026 -
Dejan Joveljić Seattle Sounders Ativo 122 / 139 40% 1 23.08.2026 -
Freddy Gomez La Equidad Ativo 133 / 142 40% 1 22.08.2026 -
John Kennedy Fluminense Ativo 120 / 115 40% 1 22.08.2026 -
Gabriel Barbosa Farense Ativo 107 / 97 40% 1 19.08.2026 -
Roméo Beney Famalicao Ativo 112 / 114 40% 3 16.08.2026 -
Alexandre Duville-Parsemain Moreirense Ativo 108 / 121 40% 1 12.08.2026 -
Henrique Araújo Casa Pia Ativo 125 / 105 40% 1 12.08.2026 -
Tamble Monteiro Rio Ave Ativo 125 / 129 40% 2 09.08.2026 -
Jonny Arriba Cádiz Ativo 109 / 118 40% 1 06.08.2026 -
Bryan Róchez Chaves Ativo 115 / 108 40% 1 06.08.2026 -
Luciano Sport Recife Ativo 129 / 129 40% 1 05.08.2026 -
João Vasconcelos Santa Clara Ativo 97 / 98 40% 1 05.08.2026 -
Miguel Nogueira Vitoria Guimaraes Ativo 119 / 100 40% 1 05.08.2026 -
William Gomes Porto Ativo 129 / 130 40% 1 04.08.2026 -
Ricard Sánchez Estoril Praia Ativo 125 / 131 40% 1 01.08.2026 -
Sergi Altimira Sporting CP Ativo 144 / 146 40% 1 01.08.2026 -